AirNav   Everest Fuels
 
 257 users online  

3J6 Davis Field Airport
Folkston, Georgia, USA

GOING TO FOLKSTON?


FAA INFORMATION EFFECTIVE 18 JUNE 2020

Location

FAA Identifier: 3J6
Lat/Long: 30-47-46.9000N 082-01-41.4000W
30-47.781667N 082-01.690000W
30.7963611,-82.0281667
(estimated)
Elevation: 68 ft. / 21 m (estimated)
Variation: 03W (1985)
From city: 3 miles SW of FOLKSTON, GA
Time zone: UTC -4 (UTC -5 during Standard Time)
Zip code: 31537

Airport Operations

Airport use: Open to the public
Activation date: 11/1962
Control tower: no
ARTCC: JACKSONVILLE CENTER
FSS: MACON FLIGHT SERVICE STATION
NOTAMs facility: MCN (NOTAM-D service available)
Attendance: UNATNDD
Wind indicator: lighted
Segmented circle: yes
Lights: MIRL RWY 01/19 PRESET LOW INTST DUSK-2030; AFT 2030 ACTVT - CTAF.
Beacon: white-green (lighted land airport)
Operates sunset to sunrise.

Airport Communications

CTAF: 122.9

Nearby radio navigation aids

VOR radial/distance  VOR name  Freq  Var
TAYr060/32.2TAYLOR VORTAC112.9003W
SSIr247/33.6BRUNSWICK VORTAC109.8004W
VQQr352/(35.7)CECIL VOR117.9003W
CRGr319/38.3CRAIG VORTAC114.5003W
AYSr136/39.3WAYCROSS VORTAC110.2000E

Airport Services

Parking: tiedowns
Airframe service: NONE
Powerplant service: NONE
Bottled oxygen: NONE
Bulk oxygen: NONE

Runway Information

Runway 1/19

Dimensions: 2500 x 50 ft. / 762 x 15 m
Surface: asphalt, in good condition
Weight bearing capacity: 
Single wheel: 12.5
Runway edge lights: medium intensity
RUNWAY 1  RUNWAY 19
Latitude: 30-47.575833N30-47.988333N
Longitude: 082-01.694833W082-01.685000W
Traffic pattern: rightleft
Markings: basic, in good conditionbasic, in good condition
Obstructions: 42 ft. trees, 201 ft. from runway, 100 ft. left and right of centerline
+50 FT TREES 90 FT LEFT & RIGHT AT THLD
19 ft. trees, 580 ft. from runway, 100 ft. left of centerline, 20:1 slope to clear

Airport Ownership and Management from official FAA records

Ownership: Publicly-owned
Owner: CHARLTON COUNTY
68 KINGSLAND DR. STE B
FOLKSTON, GA 31537
Phone 912-496-2549
Manager: HAMPTON RAULERSON
68 KINSLAND DR., STE B
FOLKSTON, GA 31537
Phone (912) 886-3260

Airport Operational Statistics

Aircraft based on the field: 8
Single engine airplanes: 8
    
Aircraft operations: avg 61/week *
62% local general aviation
31% transient general aviation
6% military
* for 12-month period ending 31 December 2019

Additional Remarks

LGTD 272 FT AGL TOWER 1000 FT WEST.
FOR CD CTC JACKSONVILLE APCH AT 904-741-0284.

Instrument Procedures

There are no published instrument procedures at 3J6.

Some nearby airports with instrument procedures:

KJAX - Jacksonville International Airport (25 nm SE)
4J1 - Brantley County Airport (25 nm N)
KFHB - Fernandina Beach Municipal Airport (31 nm E)
KAYS - Waycross-Ware County Airport (33 nm NW)
KHEG - Herlong Recreational Airport (33 nm S)
 
Loc | Ops | Rwys | IFR | FBO | Links
Com | Nav | Svcs | Stats | Notes
Area around 3J6 (Davis Field Airport)
 
Road maps at: MapQuest Bing Google
 
Aerial photo
WARNING: Photo may not be current or correct
Aerial photo of 3J6 (Davis Field Airport)
Do you have a better or more recent aerial photo of Davis Field Airport that you would like to share? If so, please send us your photo.

 
Sectional chart

 
Airport distance calculator
Flying to Davis Field Airport? Find the distance to fly.

From to 3J6

Sunrise and sunset
Times for 04-Jul-2020
 Local
(UTC-4)
 Zulu
(UTC)
Morning civil twilight06:0410:04
Sunrise06:3110:31
Sunset20:3400:34
Evening civil twilight21:0201:02

Current date and time
Zulu (UTC)  04-Jul-2020 09:46:43
Local (UTC-4)  04-Jul-2020 05:46:43
 
METAR
KJAX 
25nm SE 
040856Z 00000KT 9SM FEW003 FEW130 BKN190 BKN250 23/23 A2990 RMK AO2 SLP125 T02280228 58009
KFHB 
31nm E 
040935Z AUTO 31003KT 10SM CLR 24/ A2991 RMK AO2 T0240////
KHEG 
33nm S 
040935Z AUTO 00000KT 8SM CLR 23/22 A2993 RMK AO2
KAYS 
33nm NW 
040935Z AUTO 00000KT 10SM OVC009 24/21 A2992 RMK AO2 T02350207 TSNO
KVQQ 
36nm S 
040935Z AUTO 00000KT 1SM BR CLR 22/22 A2991 RMK AO2
KCRG 
38nm SE 
040853Z AUTO 31004KT 10SM CLR 24/23 A2990 RMK AO2 SLP126 T02440228 58008
KSSI 
39nm NE 
040931Z AUTO 35004KT 1 1/2SM BR OVC002 24/24 A2990 RMK AO2 VIS 1V2 T02440244
KNIP 
39nm SE 
040853Z 31004KT 10SM BKN180 BKN250 24/22 A2991 RMK AO2 SLP123 T02440217 58008
KBQK 
40nm NE 
040935Z AUTO 00000KT 1/2SM FG BKN006 OVC013 22/22 A2991 RMK AO2 T02230222
KNRB 
40nm SE 
040852Z AUTO 30004KT 10SM CLR 24/23 A2991 RMK AO2 SLP126 T02440233 58006 $
TAF
KJAX 
25nm SE 
040534Z 0406/0506 00000KT P6SM FEW010 SCT160 BKN250 FM041000 00000KT P6SM SCT015 BKN025 TEMPO 0411/0415 SCT007 BKN015 FM041500 07005KT P6SM VCSH SCT026 SCT100 FM041700 07006KT P6SM VCTS SCT030CB SCT090 PROB30 0417/0420 VRB15G25KT 4SM TSRA BKN030CB FM042000 10007KT 6SM SHRA VCTS SCT029CB SCT080 PROB30 0420/0422 VRB15G25KT 4SM TSRA BR BKN029CB FM042200 12007KT P6SM VCSH SCT035 BKN100 FM050200 VRB03KT P6SM SCT040 BKN200
NOTAMs
Click for the latest NOTAMs
NOTAMs are issued by the DoD/FAA and will open in a separate window not controlled by AirNav.

 

 
 

Would you like to see your business listed on this page?

 If your business provides an interesting product or service to pilots, flight crews, aircraft, or users of the Davis Field Airport, you should consider listing it here.  To start the listing process, click on the button below
 
Add a business
 

Other Pages about Davis Field Airport

Update a link
 
Copyright © AirNav, LLC. All rights reserved. Privacy Policy  Contact